createdAt,value
2022-12-09T00:02:15.187Z,100570.00
2022-12-09T00:04:44.946Z,100569.69
2022-12-09T00:07:14.087Z,100557.50
2022-12-09T00:09:44.577Z,100553.03
2022-12-09T00:12:14.200Z,100543.41
2022-12-09T00:14:44.716Z,100515.16
2022-12-09T00:17:14.246Z,100489.59
2022-12-09T00:19:43.881Z,100539.66
2022-12-09T00:22:14.011Z,100516.75
2022-12-09T00:24:43.199Z,100512.06
2022-12-09T00:27:12.244Z,100511.59
2022-12-09T00:29:41.999Z,100507.22
2022-12-09T00:32:12.550Z,100461.88
2022-12-09T00:34:42.421Z,100528.41
2022-12-09T00:37:12.216Z,100487.22
2022-12-09T00:39:42.329Z,100538.34
2022-12-09T00:42:11.844Z,100556.06
2022-12-09T00:44:41.367Z,100563.44
2022-12-09T00:47:10.628Z,100534.19
2022-12-09T00:49:41.592Z,100554.34
2022-12-09T00:52:11.275Z,100557.50
2022-12-09T00:54:40.725Z,100558.34
2022-12-09T00:57:10.121Z,100562.75
2022-12-09T00:59:39.518Z,100568.97
2022-12-09T04:34:40.111Z,100439.88
2022-12-09T04:37:09.984Z,100434.31
2022-12-09T04:39:42.036Z,100438.19
2022-12-09T04:42:11.726Z,100452.09
2022-12-09T04:44:42.488Z,100403.16
2022-12-09T04:47:12.156Z,100442.78
2022-12-09T04:49:43.071Z,100396.66
2022-12-09T04:52:12.549Z,100420.84
2022-12-09T04:54:42.350Z,100449.06
2022-12-09T04:57:12.381Z,100429.81
2022-12-09T04:59:42.026Z,100442.16
2022-12-09T05:02:24.023Z,100355.44
2022-12-09T05:04:54.933Z,100419.31
2022-12-09T05:07:25.421Z,100437.75
2022-12-09T05:09:55.407Z,100424.31
2022-12-09T05:12:25.297Z,100435.84
2022-12-09T05:14:55.206Z,100432.72
2022-12-09T05:17:25.406Z,100413.66
2022-12-09T05:19:55.868Z,100367.28
2022-12-09T05:22:25.630Z,100428.63
2022-12-09T05:24:56.004Z,100418.34
2022-12-09T05:27:26.057Z,100413.97
2022-12-09T05:29:55.446Z,100433.56
2022-12-09T05:32:24.750Z,100433.50
2022-12-09T05:34:56.414Z,100298.69
2022-12-09T05:37:25.730Z,100427.78
2022-12-09T05:39:55.238Z,100409.75
2022-12-09T05:42:25.312Z,100423.84
2022-12-09T05:44:55.276Z,100417.56
2022-12-09T05:47:28.309Z,100400.50
2022-12-09T05:50:04.380Z,100401.94
2022-12-09T05:52:37.833Z,100414.47
2022-12-09T05:55:08.834Z,100425.94
2022-12-09T05:57:38.758Z,100434.03
2022-12-09T06:00:10.012Z,100438.34
2022-12-09T06:02:42.809Z,100398.81
2022-12-09T06:05:16.324Z,100412.38
2022-12-09T06:07:46.503Z,100420.38
2022-12-09T06:10:17.527Z,100430.81
2022-12-09T06:12:50.682Z,100430.22
2022-12-09T06:15:21.781Z,100426.50
2022-12-09T06:17:53.070Z,100422.50
2022-12-09T06:20:23.956Z,100384.63
2022-12-09T06:22:53.564Z,100422.72
2022-12-09T06:25:25.383Z,100417.53
2022-12-09T06:27:55.223Z,100385.72
2022-12-09T06:30:25.284Z,100395.31
2022-12-09T06:32:55.082Z,100380.97
2022-12-09T06:35:26.374Z,100398.25
2022-12-09T06:37:56.509Z,100402.47
2022-12-09T06:40:26.559Z,100406.72
2022-12-09T06:42:56.593Z,100409.19
2022-12-09T06:45:26.430Z,100390.13
2022-12-09T06:47:56.517Z,100368.19
2022-12-09T06:50:27.931Z,100414.88
2022-12-09T06:52:57.966Z,100417.56
2022-12-09T06:55:28.664Z,100416.47
2022-12-09T06:58:00.489Z,100395.34
2022-12-09T07:00:30.304Z,100428.47
2022-12-09T07:03:00.689Z,100417.00
2022-12-09T07:05:33.385Z,100410.41
2022-12-09T13:25:06.057Z,100207.25
2022-12-09T13:50:06.237Z,100175.88
2022-12-09T14:20:07.276Z,100138.25
2022-12-09T14:45:08.207Z,100165.84
2022-12-09T15:10:06.450Z,100163.88
2022-12-09T15:35:07.010Z,100174.81
2022-12-09T16:00:11.430Z,100146.16
2022-12-09T16:25:14.505Z,100139.50
2022-12-09T16:55:05.947Z,100158.22
2022-12-09T18:25:04.988Z,100109.75
2022-12-09T18:55:03.986Z,100122.22
